createdAt,value
2023-05-06T00:01:27.514Z,99.90
2023-05-06T00:03:54.576Z,99.90
2023-05-06T00:06:24.684Z,99.90
2023-05-06T00:08:56.254Z,99.90
2023-05-06T00:11:26.547Z,99.90
2023-05-06T00:13:58.208Z,99.90
2023-05-06T00:16:25.182Z,99.90
2023-05-06T00:18:58.348Z,99.90
2023-05-06T00:21:27.643Z,99.90
2023-05-06T00:23:54.625Z,99.90
2023-05-06T00:26:21.446Z,99.90
2023-05-06T00:28:50.947Z,99.90
2023-05-06T00:31:19.878Z,99.90
2023-05-06T00:33:51.897Z,99.90
2023-05-06T00:36:21.077Z,99.90
2023-05-06T00:38:48.020Z,99.90
2023-05-06T00:41:14.863Z,99.90
2023-05-06T00:43:41.739Z,99.90
2023-05-06T00:46:11.572Z,99.90
2023-05-06T00:48:38.899Z,99.90
2023-05-06T00:51:05.742Z,99.90
2023-05-06T00:53:35.030Z,99.90
2023-05-06T00:56:02.269Z,99.90
2023-05-06T00:58:28.969Z,99.90
2023-05-06T01:00:56.431Z,99.90
2023-05-06T01:03:23.296Z,99.90
2023-05-06T01:06:13.603Z,99.90
2023-05-06T01:08:57.667Z,99.90
2023-05-06T01:11:40.886Z,99.90
2023-05-06T01:14:28.776Z,99.90
2023-05-06T01:17:00.074Z,99.90
2023-05-06T01:19:43.523Z,99.90
2023-05-06T01:22:14.746Z,99.90
2023-05-06T01:24:44.065Z,99.90
2023-05-06T01:27:14.099Z,99.90
2023-05-06T01:29:46.871Z,99.90
2023-05-06T01:32:35.232Z,99.90
2023-05-06T01:35:18.437Z,99.90
2023-05-06T01:38:00.872Z,99.90
2023-05-06T01:40:30.277Z,99.90
2023-05-06T01:42:59.893Z,99.90
2023-05-06T01:45:29.593Z,99.90
2023-05-06T01:48:00.006Z,99.90
2023-05-06T01:50:27.730Z,99.90
2023-05-06T01:53:01.974Z,99.90
2023-05-06T01:55:32.127Z,99.90
2023-05-06T01:57:58.839Z,99.90
2023-05-06T02:00:26.234Z,99.90
2023-05-06T02:02:53.051Z,99.90
2023-05-06T02:05:22.184Z,99.90
2023-05-06T02:07:48.879Z,99.90
2023-05-06T02:10:15.728Z,99.90
2023-05-06T02:12:42.407Z,99.90
2023-05-06T02:15:09.557Z,99.90
2023-05-06T02:17:39.082Z,99.90
2023-05-06T02:20:09.597Z,99.90
2023-05-06T02:22:36.259Z,99.90
2023-05-06T02:25:03.880Z,99.90
2023-05-06T02:27:30.845Z,99.90
2023-05-06T02:29:57.512Z,99.90
2023-05-06T02:32:24.187Z,99.90
2023-05-06T02:34:51.691Z,99.90
2023-05-06T02:37:20.900Z,99.90
2023-05-06T02:39:47.597Z,99.90
2023-05-06T02:42:15.750Z,99.90
2023-05-06T02:44:44.712Z,99.90
2023-05-06T02:47:11.352Z,99.90
2023-05-06T02:49:40.638Z,99.90
2023-05-06T02:52:07.550Z,99.90
2023-05-06T02:54:34.211Z,99.90
2023-05-06T02:57:01.136Z,99.90
2023-05-06T02:59:27.820Z,99.90
2023-05-06T03:01:54.504Z,99.90
2023-05-06T03:04:21.611Z,99.90
2023-05-06T03:06:50.898Z,99.90
2023-05-06T03:09:17.770Z,99.90
2023-05-06T03:11:44.450Z,99.90
2023-05-06T03:14:11.200Z,99.90
2023-05-06T03:16:40.034Z,99.90
2023-05-06T03:19:06.840Z,99.90
2023-05-06T03:21:33.816Z,99.90
2023-05-06T03:24:02.949Z,99.90
2023-05-06T03:26:29.736Z,99.90
2023-05-06T03:28:59.077Z,99.90
2023-05-06T03:31:25.914Z,99.90
2023-05-06T03:33:55.328Z,99.90
2023-05-06T03:36:25.069Z,99.90
2023-05-06T03:38:51.873Z,99.90
2023-05-06T03:41:18.504Z,99.90
2023-05-06T03:43:45.221Z,99.90
2023-05-06T03:46:12.013Z,99.90
2023-05-06T03:48:38.700Z,99.90
2023-05-06T03:51:05.693Z,99.90
2023-05-06T03:53:32.418Z,99.90
2023-05-06T03:55:59.030Z,99.90
2023-05-06T03:58:25.847Z,99.90
2023-05-06T04:00:52.526Z,99.90
2023-05-06T04:03:21.573Z,99.90
2023-05-06T04:05:50.523Z,99.90
2023-05-06T04:08:17.370Z,99.90
2023-05-06T04:10:44.266Z,99.90
2023-05-06T04:13:10.923Z,99.90
2023-05-06T04:15:38.626Z,99.90
2023-05-06T04:18:07.930Z,99.90
2023-05-06T04:20:34.884Z,99.90
2023-05-06T04:23:02.162Z,99.90
2023-05-06T04:25:28.871Z,99.90
2023-05-06T04:27:57.808Z,99.90
2023-05-06T04:30:27.208Z,99.90
2023-05-06T04:32:53.968Z,99.90
2023-05-06T04:35:23.466Z,99.90
2023-05-06T04:37:53.260Z,99.90
2023-05-06T04:40:20.005Z,99.90
2023-05-06T04:42:46.661Z,99.90
2023-05-06T04:45:13.407Z,99.90
2023-05-06T04:47:40.564Z,99.90
2023-05-06T04:50:08.206Z,99.90
2023-05-06T04:52:35.625Z,99.90
2023-05-06T04:55:02.688Z,99.90
2023-05-06T04:57:30.961Z,99.90
2023-05-06T04:59:57.904Z,99.90
2023-05-06T05:02:24.766Z,99.90
2023-05-06T05:04:51.798Z,99.90
2023-05-06T05:07:21.100Z,99.90
2023-05-06T05:09:47.781Z,99.90
2023-05-06T05:12:16.861Z,99.90
2023-05-06T05:14:43.539Z,99.90
2023-05-06T05:17:10.280Z,99.90
2023-05-06T05:19:36.985Z,99.90
2023-05-06T05:22:03.634Z,99.90
2023-05-06T05:24:30.555Z,99.90
2023-05-06T05:26:59.485Z,99.90
2023-05-06T05:29:28.738Z,99.90
2023-05-06T05:31:55.539Z,99.90
2023-05-06T05:34:22.202Z,99.90
2023-05-06T05:36:48.832Z,99.90
2023-05-06T05:39:15.497Z,99.90
2023-05-06T05:41:42.241Z,99.90
2023-05-06T05:44:09.040Z,99.90
2023-05-06T05:46:36.022Z,99.90
2023-05-06T05:49:02.762Z,99.90
2023-05-06T05:51:29.482Z,99.90
2023-05-06T05:53:56.510Z,99.90
2023-05-06T05:56:23.156Z,99.90
2023-05-06T05:58:49.986Z,99.90
2023-05-06T06:01:17.471Z,99.90
2023-05-06T06:03:44.328Z,99.90
2023-05-06T06:06:11.351Z,99.90
2023-05-06T06:08:40.745Z,99.90
2023-05-06T06:11:07.493Z,99.90
2023-05-06T06:13:34.275Z,99.90
2023-05-06T06:16:01.332Z,99.90
2023-05-06T06:18:28.128Z,99.90
2023-05-06T06:20:54.860Z,99.90
2023-05-06T06:23:21.705Z,99.90
2023-05-06T06:25:48.468Z,99.90
2023-05-06T06:28:15.208Z,99.90
2023-05-06T06:30:42.248Z,99.90
2023-05-06T06:33:08.927Z,99.90
2023-05-06T06:35:35.583Z,99.90
2023-05-06T06:38:02.872Z,99.90
2023-05-06T06:40:29.705Z,99.90
2023-05-06T06:42:56.395Z,99.90
2023-05-06T06:45:23.723Z,99.90
2023-05-06T06:47:50.733Z,99.90
2023-05-06T06:50:18.329Z,99.90
2023-05-06T06:52:47.325Z,99.90
2023-05-06T06:55:14.530Z,99.90
2023-05-06T06:57:41.338Z,99.90
2023-05-06T07:00:08.518Z,99.90
2023-05-06T07:02:35.312Z,99.90
2023-05-06T07:05:03.390Z,99.90
2023-05-06T07:07:30.139Z,99.90
2023-05-06T07:09:59.206Z,99.90
2023-05-06T07:12:26.753Z,99.90
2023-05-06T07:14:55.637Z,99.90
2023-05-06T07:17:22.472Z,99.90
2023-05-06T07:19:49.166Z,99.90
2023-05-06T07:22:15.806Z,99.90
2023-05-06T07:24:45.011Z,99.90
2023-05-06T07:27:14.183Z,99.90
2023-05-06T07:29:41.230Z,99.90
2023-05-06T07:32:07.976Z,99.90
2023-05-06T07:34:36.028Z,99.90
2023-05-06T07:37:03.838Z,99.90
2023-05-06T07:39:31.013Z,99.90
2023-05-06T07:41:57.844Z,99.90
2023-05-06T07:44:25.959Z,99.90
2023-05-06T07:46:52.908Z,99.90
2023-05-06T07:49:19.677Z,99.90
2023-05-06T07:51:46.410Z,99.90
2023-05-06T07:54:13.070Z,99.90
2023-05-06T07:56:39.867Z,99.90
2023-05-06T07:59:06.712Z,99.90
2023-05-06T08:01:33.549Z,99.90
2023-05-06T08:04:00.667Z,99.90
2023-05-06T08:06:29.648Z,99.90
2023-05-06T08:08:56.330Z,99.90
2023-05-06T08:11:25.698Z,99.90
2023-05-06T08:13:52.546Z,99.90
2023-05-06T08:16:19.719Z,99.90
2023-05-06T08:18:46.495Z,99.90
2023-05-06T08:21:15.893Z,99.90
2023-05-06T08:23:42.551Z,99.90
2023-05-06T08:26:09.281Z,99.90
2023-05-06T08:28:36.472Z,99.90
2023-05-06T08:31:03.108Z,99.90
2023-05-06T08:33:30.818Z,99.90
2023-05-06T08:35:58.844Z,99.90
2023-05-06T08:38:25.971Z,99.90
2023-05-06T08:40:54.332Z,99.90
2023-05-06T08:43:22.136Z,99.90
2023-05-06T08:45:49.808Z,99.90
2023-05-06T08:48:16.928Z,99.90
2023-05-06T08:50:44.288Z,99.90
2023-05-06T08:53:14.236Z,99.90
2023-05-06T08:55:42.547Z,99.90
2023-05-06T08:58:13.298Z,99.90
2023-05-06T09:00:40.399Z,99.90
2023-05-06T09:03:07.358Z,99.90
2023-05-06T09:05:34.130Z,99.90
2023-05-06T09:08:00.850Z,99.90
2023-05-06T09:10:32.651Z,99.90
2023-05-06T09:13:01.712Z,99.90
2023-05-06T09:15:42.685Z,99.90
2023-05-06T09:18:12.010Z,99.90
2023-05-06T09:20:46.450Z,99.90
2023-05-06T09:23:14.954Z,99.90
2023-05-06T09:25:44.423Z,99.90
2023-05-06T09:28:12.405Z,99.90
2023-05-06T09:30:44.545Z,99.90
2023-05-06T09:33:11.923Z,99.90
2023-05-06T09:35:42.083Z,99.90
2023-05-06T09:38:10.078Z,99.90
2023-05-06T09:40:38.057Z,99.90
2023-05-06T09:43:05.740Z,99.90
2023-05-06T09:45:33.029Z,99.90
2023-05-06T09:48:02.705Z,99.90
2023-05-06T09:50:31.663Z,99.90
2023-05-06T09:53:00.398Z,99.90
2023-05-06T09:55:28.780Z,99.90
2023-05-06T09:57:56.881Z,99.90
2023-05-06T10:00:28.258Z,99.90
2023-05-06T10:02:55.947Z,99.90
2023-05-06T10:05:24.823Z,99.90
2023-05-06T10:07:53.507Z,99.90
2023-05-06T10:10:22.308Z,99.90
2023-05-06T10:12:52.641Z,99.90
2023-05-06T10:15:19.459Z,99.90
2023-05-06T10:17:48.877Z,99.90
2023-05-06T10:20:19.612Z,99.90
2023-05-06T10:22:55.205Z,99.90
2023-05-06T10:25:45.717Z,99.90
2023-05-06T10:28:21.343Z,99.90
2023-05-06T10:30:59.293Z,99.50
2023-05-06T10:33:28.340Z,99.90
2023-05-06T10:36:11.650Z,99.90
2023-05-06T10:38:43.412Z,99.90
2023-05-06T10:41:10.928Z,99.90
2023-05-06T10:43:42.752Z,99.20
2023-05-06T10:46:17.275Z,99.40
2023-05-06T10:49:11.378Z,99.10
2023-05-06T10:51:38.645Z,99.90
2023-05-06T10:54:07.183Z,99.40
2023-05-06T10:56:34.997Z,99.20
2023-05-06T10:59:12.775Z,97.70
2023-05-06T11:01:41.122Z,97.60
2023-05-06T11:04:19.287Z,96.70
2023-05-06T11:06:50.592Z,96.90
2023-05-06T11:09:27.204Z,95.20
2023-05-06T11:12:04.980Z,94.70
2023-05-06T11:14:37.679Z,94.80
2023-05-06T11:17:06.669Z,95.20
2023-05-06T11:19:40.333Z,95.50
2023-05-06T11:22:07.266Z,96.40
2023-05-06T11:24:42.168Z,95.60
2023-05-06T11:27:10.244Z,95.90
2023-05-06T11:29:37.644Z,94.40
2023-05-06T11:32:08.624Z,94.80
2023-05-06T11:34:36.751Z,94.20
2023-05-06T11:37:07.953Z,94.70
2023-05-06T11:39:40.285Z,93.90
2023-05-06T11:42:08.791Z,94.70
2023-05-06T11:44:39.783Z,95.10
2023-05-06T11:47:08.695Z,94.90
2023-05-06T11:49:44.627Z,95.20
2023-05-06T11:52:12.765Z,95.10
2023-05-06T11:54:41.965Z,95.50
2023-05-06T11:57:09.831Z,95.30
2023-05-06T11:59:40.338Z,96.00
2023-05-06T12:02:09.390Z,95.40
2023-05-06T12:04:44.053Z,91.70
2023-05-06T12:07:12.697Z,92.80
2023-05-06T12:09:42.378Z,93.70
2023-05-06T12:12:14.940Z,93.60
2023-05-06T12:14:42.082Z,94.80
2023-05-06T12:17:12.704Z,94.20
2023-05-06T12:19:39.477Z,94.00
2023-05-06T12:22:24.517Z,92.50
2023-05-06T12:24:51.450Z,92.50
2023-05-06T12:27:35.571Z,92.10
2023-05-06T12:30:04.537Z,91.70
2023-05-06T12:32:31.819Z,91.80
2023-05-06T12:35:00.371Z,90.50
2023-05-06T12:37:28.896Z,91.40
2023-05-06T12:39:58.824Z,91.30
2023-05-06T12:42:26.458Z,89.70
2023-05-06T12:44:55.869Z,90.10
2023-05-06T12:47:24.877Z,89.80
2023-05-06T12:49:57.942Z,89.00
2023-05-06T12:52:29.983Z,89.00
2023-05-06T12:54:57.324Z,85.40
2023-05-06T12:57:24.060Z,84.50
2023-05-06T12:59:53.859Z,83.30
2023-05-06T13:02:20.780Z,82.70
2023-05-06T13:04:50.103Z,81.50
2023-05-06T13:07:17.151Z,79.80
2023-05-06T13:09:44.531Z,83.20
2023-05-06T13:12:13.630Z,80.80
2023-05-06T13:14:40.514Z,79.30
2023-05-06T13:17:10.028Z,80.50
2023-05-06T13:19:37.106Z,78.00
2023-05-06T13:22:03.894Z,80.90
2023-05-06T13:24:32.052Z,78.70
2023-05-06T13:27:00.863Z,78.90
2023-05-06T13:29:29.444Z,76.00
2023-05-06T13:31:58.635Z,79.90
2023-05-06T13:34:27.998Z,80.50
2023-05-06T13:36:54.790Z,77.70
2023-05-06T13:39:23.918Z,76.50
2023-05-06T13:41:51.395Z,74.10
2023-05-06T13:44:21.839Z,73.90
2023-05-06T13:46:48.859Z,77.20
2023-05-06T13:49:15.666Z,75.90
2023-05-06T13:51:42.403Z,77.30
2023-05-06T13:54:09.094Z,77.50
2023-05-06T13:56:35.849Z,76.00
2023-05-06T13:59:02.480Z,76.10
2023-05-06T14:01:31.614Z,72.30
2023-05-06T14:03:58.217Z,71.70
2023-05-06T14:06:24.969Z,70.30
2023-05-06T14:08:54.069Z,71.00
2023-05-06T14:11:20.917Z,70.50
2023-05-06T14:13:48.250Z,69.20
2023-05-06T14:16:16.606Z,70.30
2023-05-06T14:18:43.453Z,69.40
2023-05-06T14:21:10.246Z,70.30
2023-05-06T14:23:37.880Z,69.10
2023-05-06T14:26:04.631Z,67.80
2023-05-06T14:28:31.349Z,67.70
2023-05-06T14:30:58.270Z,66.20
2023-05-06T14:33:24.968Z,66.30
2023-05-06T14:35:54.480Z,65.60
2023-05-06T14:38:21.200Z,65.00
2023-05-06T14:40:50.533Z,65.40
2023-05-06T14:43:17.195Z,64.80
2023-05-06T14:45:43.963Z,63.00
2023-05-06T14:48:13.063Z,63.50
2023-05-06T14:50:39.968Z,63.10
2023-05-06T14:53:06.741Z,66.80
2023-05-06T14:55:33.432Z,65.80
2023-05-06T14:58:02.718Z,66.90
2023-05-06T15:00:29.358Z,66.60
2023-05-06T15:02:56.488Z,65.40
2023-05-06T15:05:23.161Z,65.20
2023-05-06T15:07:50.026Z,65.10
2023-05-06T15:10:16.892Z,64.80
2023-05-06T15:12:43.561Z,66.50
2023-05-06T15:15:10.704Z,64.50
2023-05-06T15:17:39.565Z,63.90
2023-05-06T15:20:07.057Z,65.90
2023-05-06T15:22:33.717Z,65.50
2023-05-06T15:25:01.566Z,64.30
2023-05-06T15:27:28.296Z,67.10
2023-05-06T15:29:54.996Z,67.60
2023-05-06T15:32:21.691Z,65.30
2023-05-06T15:34:50.713Z,62.50
2023-05-06T15:37:19.225Z,64.00
2023-05-06T15:39:47.675Z,61.90
2023-05-06T15:42:14.374Z,62.90
2023-05-06T15:44:41.271Z,64.10
2023-05-06T15:47:08.063Z,60.70
2023-05-06T15:49:52.050Z,60.70
2023-05-06T15:52:21.171Z,61.40
2023-05-06T15:54:49.888Z,63.50
2023-05-06T15:57:17.024Z,64.60
2023-05-06T15:59:45.916Z,64.50
2023-05-06T16:02:26.871Z,64.10
2023-05-06T16:04:54.894Z,61.40
2023-05-06T16:07:21.859Z,65.00
2023-05-06T16:09:52.184Z,64.90
2023-05-06T16:12:18.946Z,64.70
2023-05-06T16:14:45.609Z,64.00
2023-05-06T16:17:12.344Z,61.80
2023-05-06T16:19:39.156Z,62.50
2023-05-06T16:22:05.995Z,62.50
2023-05-06T16:24:32.665Z,62.40
2023-05-06T16:26:59.389Z,60.40
2023-05-06T16:29:28.234Z,62.00
2023-05-06T16:31:55.084Z,62.90
2023-05-06T16:34:22.011Z,61.40
2023-05-06T16:36:48.828Z,60.70
2023-05-06T16:39:15.437Z,60.80
2023-05-06T16:41:44.276Z,60.80
2023-05-06T16:44:10.980Z,62.00
2023-05-06T16:46:37.673Z,64.60
2023-05-06T16:49:07.112Z,64.10
2023-05-06T16:51:36.210Z,65.10
2023-05-06T16:54:03.352Z,64.70
2023-05-06T16:56:43.828Z,65.20
2023-05-06T16:59:21.686Z,65.30
2023-05-06T17:01:48.873Z,65.20
2023-05-06T17:04:22.320Z,65.90
2023-05-06T17:06:51.150Z,66.00
2023-05-06T17:09:18.000Z,66.50
2023-05-06T17:11:44.650Z,67.40
2023-05-06T17:14:11.468Z,68.00
2023-05-06T17:16:38.757Z,68.10
2023-05-06T17:19:05.724Z,69.00
2023-05-06T17:21:35.027Z,69.30
2023-05-06T17:24:01.726Z,70.40
2023-05-06T17:26:32.503Z,71.30
2023-05-06T17:29:00.137Z,72.10
2023-05-06T17:31:27.090Z,71.80
2023-05-06T17:33:54.059Z,71.20
2023-05-06T17:36:23.686Z,70.80
2023-05-06T17:39:01.102Z,69.50
2023-05-06T17:41:27.927Z,68.50
2023-05-06T17:43:57.123Z,70.50
2023-05-06T17:46:24.317Z,71.90
2023-05-06T17:48:51.044Z,71.80
2023-05-06T17:51:18.960Z,72.70
2023-05-06T17:53:45.637Z,72.00
2023-05-06T17:56:12.340Z,72.40
2023-05-06T17:58:39.127Z,72.20
2023-05-06T18:01:05.819Z,72.80
2023-05-06T18:03:32.623Z,73.20
2023-05-06T18:05:59.949Z,73.50
2023-05-06T18:08:29.028Z,74.20
2023-05-06T18:10:56.118Z,76.20
2023-05-06T18:13:23.255Z,76.70
2023-05-06T18:15:49.969Z,77.00
2023-05-06T18:18:16.685Z,79.70
2023-05-06T18:20:43.306Z,83.40
2023-05-06T18:23:09.998Z,81.90
2023-05-06T18:25:36.823Z,79.00
2023-05-06T18:28:05.023Z,80.10
2023-05-06T18:30:33.999Z,81.50
2023-05-06T18:33:00.732Z,85.70
2023-05-06T18:35:27.420Z,88.60
2023-05-06T18:37:54.142Z,89.00
2023-05-06T18:40:21.540Z,87.90
2023-05-06T18:42:48.163Z,90.30
2023-05-06T18:45:14.886Z,90.40
2023-05-06T18:47:41.728Z,90.40
2023-05-06T18:50:08.964Z,91.20
2023-05-06T18:52:38.753Z,91.00
2023-05-06T18:55:07.359Z,91.70
2023-05-06T18:57:36.263Z,91.90
2023-05-06T19:00:03.522Z,92.10
2023-05-06T19:02:30.267Z,92.80
2023-05-06T19:04:58.212Z,93.80
2023-05-06T19:07:24.995Z,93.30
2023-05-06T19:09:51.655Z,93.90
2023-05-06T19:12:20.660Z,94.50
2023-05-06T19:14:47.330Z,94.90
2023-05-06T19:17:15.789Z,95.60
2023-05-06T19:19:42.497Z,96.00
2023-05-06T19:22:12.105Z,96.50
2023-05-06T19:24:38.919Z,97.00
2023-05-06T19:27:05.685Z,97.20
2023-05-06T19:29:32.473Z,97.80
2023-05-06T19:32:00.303Z,98.10
2023-05-06T19:34:29.338Z,97.80
2023-05-06T19:36:56.172Z,98.10
2023-05-06T19:39:25.347Z,98.80
2023-05-06T19:41:53.825Z,99.30
2023-05-06T19:44:20.660Z,99.90
2023-05-06T19:46:52.170Z,99.90
2023-05-06T19:49:19.021Z,99.90
2023-05-06T19:51:48.288Z,99.90
2023-05-06T19:54:15.117Z,99.90
2023-05-06T19:56:43.969Z,99.90
2023-05-06T19:59:10.926Z,99.90
2023-05-06T20:01:37.883Z,99.90
2023-05-06T20:04:04.992Z,99.90
2023-05-06T20:06:33.029Z,99.90
2023-05-06T20:09:00.185Z,99.90
2023-05-06T20:11:29.599Z,99.90
2023-05-06T20:13:56.480Z,99.90
2023-05-06T20:16:23.875Z,99.90
2023-05-06T20:18:55.277Z,99.60
2023-05-06T20:21:22.153Z,99.60
2023-05-06T20:23:48.953Z,99.70
2023-05-06T20:26:15.693Z,99.90
2023-05-06T20:28:43.982Z,99.90
2023-05-06T20:31:11.048Z,99.90
2023-05-06T20:33:39.871Z,99.90
2023-05-06T20:36:06.797Z,99.90
2023-05-06T20:38:35.753Z,99.90
2023-05-06T20:41:03.015Z,99.90
2023-05-06T20:43:30.456Z,99.90
2023-05-06T20:45:58.300Z,99.90
2023-05-06T20:48:27.753Z,99.90
2023-05-06T20:50:57.006Z,99.90
2023-05-06T20:53:27.221Z,99.90
2023-05-06T20:55:54.109Z,99.90
2023-05-06T20:58:21.137Z,99.90
2023-05-06T21:00:48.066Z,99.90
2023-05-06T21:03:14.990Z,99.90
2023-05-06T21:05:41.933Z,99.90
2023-05-06T21:08:08.822Z,99.90
2023-05-06T21:10:35.544Z,99.90
2023-05-06T21:13:04.666Z,99.90
2023-05-06T21:15:33.393Z,99.90
2023-05-06T21:18:02.414Z,99.90
2023-05-06T21:20:29.229Z,99.90
2023-05-06T21:22:58.297Z,99.90
2023-05-06T21:25:25.238Z,99.90
2023-05-06T21:27:52.055Z,99.90
2023-05-06T21:30:18.880Z,99.90
2023-05-06T21:32:46.547Z,99.90
2023-05-06T21:35:13.618Z,99.90
2023-05-06T21:37:40.463Z,99.90
2023-05-06T21:40:10.185Z,99.90
2023-05-06T21:42:39.659Z,99.90
2023-05-06T21:45:07.058Z,99.90
2023-05-06T21:47:36.045Z,99.90
2023-05-06T21:50:03.619Z,99.90
2023-05-06T21:52:33.494Z,99.90
2023-05-06T21:55:00.568Z,99.90
2023-05-06T21:57:27.359Z,99.90
2023-05-06T21:59:54.591Z,99.90
2023-05-06T22:02:26.102Z,99.90
2023-05-06T22:04:57.552Z,99.90
2023-05-06T22:07:24.356Z,99.90
2023-05-06T22:09:51.209Z,99.90
2023-05-06T22:12:20.417Z,99.90
2023-05-06T22:14:47.221Z,99.90
2023-05-06T22:17:14.092Z,99.90
2023-05-06T22:19:42.009Z,99.90
2023-05-06T22:22:11.447Z,99.90
2023-05-06T22:24:39.568Z,99.90
2023-05-06T22:27:06.577Z,99.90
2023-05-06T22:29:34.953Z,99.90
2023-05-06T22:32:04.160Z,99.90
2023-05-06T22:34:31.083Z,99.90
2023-05-06T22:37:05.345Z,99.90
2023-05-06T22:39:32.030Z,99.90
2023-05-06T22:41:58.876Z,99.90
2023-05-06T22:44:27.816Z,99.90
2023-05-06T22:46:54.974Z,99.90
2023-05-06T22:49:21.853Z,99.90
2023-05-06T22:51:48.642Z,99.90
2023-05-06T22:54:15.468Z,99.90
2023-05-06T22:56:42.286Z,99.90
2023-05-06T22:59:09.056Z,99.90
2023-05-06T23:01:35.837Z,99.90
2023-05-06T23:04:02.645Z,99.90
2023-05-06T23:06:30.932Z,99.90
2023-05-06T23:08:58.160Z,99.90
2023-05-06T23:11:30.484Z,99.90
2023-05-06T23:13:57.361Z,99.90
2023-05-06T23:16:24.327Z,99.90
2023-05-06T23:18:56.492Z,99.90
2023-05-06T23:21:26.493Z,99.90
2023-05-06T23:23:55.533Z,99.90
2023-05-06T23:26:26.998Z,99.90
2023-05-06T23:28:55.969Z,99.90
2023-05-06T23:31:22.710Z,99.90
2023-05-06T23:33:49.416Z,99.90
2023-05-06T23:36:16.270Z,99.90
2023-05-06T23:38:43.040Z,99.90
2023-05-06T23:41:10.561Z,99.90
2023-05-06T23:43:37.218Z,99.90
2023-05-06T23:46:03.924Z,99.90
2023-05-06T23:48:30.742Z,99.90
2023-05-06T23:50:57.437Z,99.90
2023-05-06T23:53:24.063Z,99.90
2023-05-06T23:55:50.939Z,99.90
2023-05-06T23:58:17.585Z,99.90
